sensor_id;sensor_type;location;lat;lon;timestamp;P1;durP1;ratioP1;P2;durP2;ratioP2
53521;SDS011;39398;48.382;9.802;2023-12-28T00:04:10;12.30;;;7.13;;
53521;SDS011;39398;48.382;9.802;2023-12-28T00:09:14;8.88;;;6.65;;
53521;SDS011;39398;48.382;9.802;2023-12-28T00:14:16;9.38;;;6.70;;
53521;SDS011;39398;48.382;9.802;2023-12-28T00:19:17;15.27;;;7.32;;
53521;SDS011;39398;48.382;9.802;2023-12-28T00:24:20;11.82;;;7.45;;
53521;SDS011;39398;48.382;9.802;2023-12-28T00:29:22;10.48;;;6.68;;
53521;SDS011;39398;48.382;9.802;2023-12-28T00:34:24;11.38;;;7.95;;
53521;SDS011;39398;48.382;9.802;2023-12-28T00:39:27;9.43;;;5.80;;
53521;SDS011;39398;48.382;9.802;2023-12-28T00:44:29;8.48;;;5.88;;
53521;SDS011;39398;48.382;9.802;2023-12-28T00:49:30;9.57;;;6.13;;
53521;SDS011;39398;48.382;9.802;2023-12-28T00:54:33;10.75;;;6.25;;
53521;SDS011;39398;48.382;9.802;2023-12-28T00:59:35;8.95;;;5.85;;
53521;SDS011;39398;48.382;9.802;2023-12-28T01:04:37;8.60;;;6.15;;
53521;SDS011;39398;48.382;9.802;2023-12-28T01:09:40;8.45;;;6.00;;
53521;SDS011;39398;48.382;9.802;2023-12-28T01:14:42;10.00;;;5.53;;
53521;SDS011;39398;48.382;9.802;2023-12-28T01:19:43;12.05;;;6.50;;
53521;SDS011;39398;48.382;9.802;2023-12-28T01:24:47;9.60;;;6.38;;
53521;SDS011;39398;48.382;9.802;2023-12-28T01:29:48;10.57;;;6.90;;
53521;SDS011;39398;48.382;9.802;2023-12-28T01:34:50;8.73;;;6.28;;
53521;SDS011;39398;48.382;9.802;2023-12-28T01:39:53;10.70;;;5.88;;
53521;SDS011;39398;48.382;9.802;2023-12-28T01:44:55;7.72;;;5.20;;
53521;SDS011;39398;48.382;9.802;2023-12-28T01:49:57;7.40;;;5.30;;
53521;SDS011;39398;48.382;9.802;2023-12-28T01:55:02;11.00;;;6.25;;
53521;SDS011;39398;48.382;9.802;2023-12-28T02:00:06;8.15;;;6.13;;
53521;SDS011;39398;48.382;9.802;2023-12-28T02:05:08;9.95;;;6.78;;
53521;SDS011;39398;48.382;9.802;2023-12-28T02:10:13;8.15;;;6.22;;
53521;SDS011;39398;48.382;9.802;2023-12-28T02:15:14;16.65;;;6.43;;
53521;SDS011;39398;48.382;9.802;2023-12-28T02:20:16;8.35;;;5.97;;
53521;SDS011;39398;48.382;9.802;2023-12-28T02:25:23;7.45;;;5.13;;
53521;SDS011;39398;48.382;9.802;2023-12-28T02:30:25;7.25;;;5.10;;
53521;SDS011;39398;48.382;9.802;2023-12-28T02:35:29;8.68;;;5.25;;
53521;SDS011;39398;48.382;9.802;2023-12-28T02:40:35;6.53;;;5.20;;
53521;SDS011;39398;48.382;9.802;2023-12-28T02:45:38;7.32;;;5.13;;
53521;SDS011;39398;48.382;9.802;2023-12-28T02:50:40;7.88;;;5.30;;
53521;SDS011;39398;48.382;9.802;2023-12-28T02:55:43;9.98;;;5.25;;
53521;SDS011;39398;48.382;9.802;2023-12-28T03:00:45;7.25;;;5.57;;
53521;SDS011;39398;48.382;9.802;2023-12-28T03:05:46;9.25;;;6.32;;
53521;SDS011;39398;48.382;9.802;2023-12-28T03:10:49;7.95;;;5.47;;
53521;SDS011;39398;48.382;9.802;2023-12-28T03:15:51;9.77;;;5.53;;
53521;SDS011;39398;48.382;9.802;2023-12-28T03:20:53;9.20;;;6.18;;
53521;SDS011;39398;48.382;9.802;2023-12-28T03:25:57;8.98;;;6.45;;
53521;SDS011;39398;48.382;9.802;2023-12-28T03:30:58;9.23;;;6.20;;
53521;SDS011;39398;48.382;9.802;2023-12-28T03:36:03;10.43;;;6.28;;
53521;SDS011;39398;48.382;9.802;2023-12-28T03:41:06;8.02;;;5.78;;
53521;SDS011;39398;48.382;9.802;2023-12-28T03:46:18;9.88;;;5.78;;
53521;SDS011;39398;48.382;9.802;2023-12-28T03:51:19;7.93;;;5.80;;
53521;SDS011;39398;48.382;9.802;2023-12-28T03:56:23;8.48;;;5.65;;
53521;SDS011;39398;48.382;9.802;2023-12-28T04:01:25;7.95;;;5.70;;
53521;SDS011;39398;48.382;9.802;2023-12-28T04:06:27;8.35;;;5.75;;
53521;SDS011;39398;48.382;9.802;2023-12-28T04:11:30;6.93;;;5.38;;
53521;SDS011;39398;48.382;9.802;2023-12-28T04:16:32;8.13;;;5.93;;
53521;SDS011;39398;48.382;9.802;2023-12-28T04:21:33;8.02;;;5.43;;
53521;SDS011;39398;48.382;9.802;2023-12-28T04:26:36;8.85;;;5.20;;
53521;SDS011;39398;48.382;9.802;2023-12-28T04:31:39;8.90;;;5.82;;
53521;SDS011;39398;48.382;9.802;2023-12-28T04:36:41;10.05;;;6.72;;
53521;SDS011;39398;48.382;9.802;2023-12-28T04:41:44;10.07;;;6.55;;
53521;SDS011;39398;48.382;9.802;2023-12-28T04:46:46;10.57;;;7.20;;
53521;SDS011;39398;48.382;9.802;2023-12-28T04:51:47;11.18;;;6.07;;
53521;SDS011;39398;48.382;9.802;2023-12-28T04:56:50;10.00;;;6.68;;
53521;SDS011;39398;48.382;9.802;2023-12-28T05:01:52;7.50;;;5.93;;
53521;SDS011;39398;48.382;9.802;2023-12-28T05:06:54;8.48;;;5.97;;
53521;SDS011;39398;48.382;9.802;2023-12-28T05:11:56;8.45;;;5.72;;
53521;SDS011;39398;48.382;9.802;2023-12-28T05:16:58;8.00;;;5.50;;
53521;SDS011;39398;48.382;9.802;2023-12-28T05:22:00;7.60;;;5.70;;
53521;SDS011;39398;48.382;9.802;2023-12-28T05:27:03;7.20;;;5.22;;
53521;SDS011;39398;48.382;9.802;2023-12-28T05:32:05;8.05;;;5.15;;
53521;SDS011;39398;48.382;9.802;2023-12-28T05:37:07;8.90;;;5.53;;
53521;SDS011;39398;48.382;9.802;2023-12-28T05:42:10;7.50;;;5.13;;
53521;SDS011;39398;48.382;9.802;2023-12-28T05:47:11;7.32;;;5.00;;
53521;SDS011;39398;48.382;9.802;2023-12-28T05:52:13;8.88;;;5.40;;
53521;SDS011;39398;48.382;9.802;2023-12-28T05:57:16;6.20;;;4.90;;
53521;SDS011;39398;48.382;9.802;2023-12-28T06:02:18;14.18;;;8.43;;
53521;SDS011;39398;48.382;9.802;2023-12-28T06:07:19;8.75;;;5.65;;
53521;SDS011;39398;48.382;9.802;2023-12-28T06:12:22;8.60;;;5.60;;
53521;SDS011;39398;48.382;9.802;2023-12-28T06:17:24;10.25;;;7.00;;
53521;SDS011;39398;48.382;9.802;2023-12-28T06:22:25;9.07;;;6.05;;
53521;SDS011;39398;48.382;9.802;2023-12-28T06:27:28;10.50;;;6.32;;
53521;SDS011;39398;48.382;9.802;2023-12-28T06:32:30;8.95;;;5.72;;
53521;SDS011;39398;48.382;9.802;2023-12-28T06:37:32;8.05;;;5.60;;
53521;SDS011;39398;48.382;9.802;2023-12-28T06:42:35;7.95;;;5.35;;
53521;SDS011;39398;48.382;9.802;2023-12-28T06:47:37;7.72;;;5.35;;
53521;SDS011;39398;48.382;9.802;2023-12-28T06:52:38;8.45;;;5.57;;
53521;SDS011;39398;48.382;9.802;2023-12-28T06:57:41;6.85;;;5.68;;
53521;SDS011;39398;48.382;9.802;2023-12-28T07:02:43;12.80;;;8.60;;
53521;SDS011;39398;48.382;9.802;2023-12-28T07:07:46;9.25;;;5.15;;
53521;SDS011;39398;48.382;9.802;2023-12-28T07:12:48;6.72;;;5.00;;
53521;SDS011;39398;48.382;9.802;2023-12-28T07:17:50;9.20;;;5.68;;
53521;SDS011;39398;48.382;9.802;2023-12-28T07:22:52;8.45;;;5.10;;
53521;SDS011;39398;48.382;9.802;2023-12-28T07:27:56;7.20;;;4.90;;
53521;SDS011;39398;48.382;9.802;2023-12-28T07:32:58;7.47;;;4.68;;
53521;SDS011;39398;48.382;9.802;2023-12-28T07:38:00;7.05;;;4.78;;
53521;SDS011;39398;48.382;9.802;2023-12-28T07:43:04;7.00;;;4.85;;
53521;SDS011;39398;48.382;9.802;2023-12-28T07:48:06;8.20;;;5.22;;
53521;SDS011;39398;48.382;9.802;2023-12-28T07:53:08;7.97;;;5.88;;
53521;SDS011;39398;48.382;9.802;2023-12-28T07:58:11;11.02;;;5.60;;
53521;SDS011;39398;48.382;9.802;2023-12-28T08:03:13;6.25;;;4.70;;
53521;SDS011;39398;48.382;9.802;2023-12-28T08:08:14;11.05;;;6.57;;
53521;SDS011;39398;48.382;9.802;2023-12-28T08:13:17;9.93;;;5.85;;
53521;SDS011;39398;48.382;9.802;2023-12-28T08:18:22;6.30;;;5.07;;
53521;SDS011;39398;48.382;9.802;2023-12-28T08:23:24;8.10;;;5.30;;
53521;SDS011;39398;48.382;9.802;2023-12-28T08:28:27;11.35;;;5.97;;
53521;SDS011;39398;48.382;9.802;2023-12-28T08:33:29;8.48;;;5.25;;
53521;SDS011;39398;48.382;9.802;2023-12-28T08:38:31;8.88;;;5.95;;
53521;SDS011;39398;48.382;9.802;2023-12-28T08:43:34;8.25;;;5.65;;
53521;SDS011;39398;48.382;9.802;2023-12-28T08:48:36;10.85;;;5.13;;
53521;SDS011;39398;48.382;9.802;2023-12-28T08:53:37;10.02;;;6.32;;
53521;SDS011;39398;48.382;9.802;2023-12-28T08:58:40;6.38;;;5.03;;
53521;SDS011;39398;48.382;9.802;2023-12-28T09:03:42;8.27;;;5.97;;
53521;SDS011;39398;48.382;9.802;2023-12-28T09:08:44;7.75;;;5.28;;
53521;SDS011;39398;48.382;9.802;2023-12-28T09:13:48;8.35;;;5.43;;
53521;SDS011;39398;48.382;9.802;2023-12-28T09:18:50;8.98;;;6.35;;
53521;SDS011;39398;48.382;9.802;2023-12-28T09:23:51;6.90;;;5.60;;
53521;SDS011;39398;48.382;9.802;2023-12-28T09:28:54;8.32;;;5.20;;
53521;SDS011;39398;48.382;9.802;2023-12-28T09:33:56;21.13;;;11.57;;
53521;SDS011;39398;48.382;9.802;2023-12-28T09:38:57;8.50;;;5.97;;
53521;SDS011;39398;48.382;9.802;2023-12-28T09:44:03;7.80;;;5.60;;
53521;SDS011;39398;48.382;9.802;2023-12-28T09:49:10;10.23;;;5.95;;
53521;SDS011;39398;48.382;9.802;2023-12-28T09:54:12;6.50;;;5.47;;
53521;SDS011;39398;48.382;9.802;2023-12-28T09:59:39;9.18;;;6.32;;
53521;SDS011;39398;48.382;9.802;2023-12-28T10:05:05;8.68;;;5.30;;
53521;SDS011;39398;48.382;9.802;2023-12-28T10:10:07;8.85;;;5.28;;
53521;SDS011;39398;48.382;9.802;2023-12-28T10:15:11;11.88;;;5.40;;
53521;SDS011;39398;48.382;9.802;2023-12-28T10:20:13;8.32;;;5.68;;
53521;SDS011;39398;48.382;9.802;2023-12-28T10:25:15;7.57;;;5.57;;
53521;SDS011;39398;48.382;9.802;2023-12-28T10:30:19;12.10;;;5.65;;
53521;SDS011;39398;48.382;9.802;2023-12-28T10:35:21;9.45;;;5.82;;
53521;SDS011;39398;48.382;9.802;2023-12-28T10:40:47;8.88;;;6.65;;
53521;SDS011;39398;48.382;9.802;2023-12-28T10:45:51;7.93;;;5.60;;
53521;SDS011;39398;48.382;9.802;2023-12-28T10:50:57;6.95;;;5.13;;
53521;SDS011;39398;48.382;9.802;2023-12-28T10:56:05;10.68;;;5.57;;
53521;SDS011;39398;48.382;9.802;2023-12-28T11:01:22;6.85;;;4.95;;
53521;SDS011;39398;48.382;9.802;2023-12-28T11:06:27;9.80;;;6.90;;
53521;SDS011;39398;48.382;9.802;2023-12-28T11:11:31;9.75;;;6.47;;
53521;SDS011;39398;48.382;9.802;2023-12-28T11:16:35;6.80;;;5.15;;
53521;SDS011;39398;48.382;9.802;2023-12-28T11:21:38;8.70;;;6.20;;
53521;SDS011;39398;48.382;9.802;2023-12-28T11:26:40;8.23;;;4.85;;
53521;SDS011;39398;48.382;9.802;2023-12-28T11:31:43;8.73;;;5.25;;
53521;SDS011;39398;48.382;9.802;2023-12-28T11:36:46;6.97;;;5.40;;
53521;SDS011;39398;48.382;9.802;2023-12-28T11:41:50;8.93;;;6.03;;
53521;SDS011;39398;48.382;9.802;2023-12-28T11:46:53;9.40;;;5.97;;
53521;SDS011;39398;48.382;9.802;2023-12-28T11:51:55;7.32;;;5.78;;
53521;SDS011;39398;48.382;9.802;2023-12-28T11:56:58;7.55;;;5.28;;
53521;SDS011;39398;48.382;9.802;2023-12-28T12:02:01;7.07;;;4.72;;
53521;SDS011;39398;48.382;9.802;2023-12-28T12:07:04;5.13;;;4.63;;
53521;SDS011;39398;48.382;9.802;2023-12-28T12:12:06;8.00;;;5.05;;
53521;SDS011;39398;48.382;9.802;2023-12-28T12:17:09;8.55;;;4.93;;
53521;SDS011;39398;48.382;9.802;2023-12-28T12:22:11;9.80;;;5.05;;
53521;SDS011;39398;48.382;9.802;2023-12-28T12:27:13;8.15;;;4.88;;
53521;SDS011;39398;48.382;9.802;2023-12-28T12:32:16;7.50;;;4.72;;
53521;SDS011;39398;48.382;9.802;2023-12-28T12:37:18;6.40;;;4.90;;
53521;SDS011;39398;48.382;9.802;2023-12-28T12:42:19;6.95;;;4.45;;
53521;SDS011;39398;48.382;9.802;2023-12-28T12:47:23;5.90;;;4.30;;
53521;SDS011;39398;48.382;9.802;2023-12-28T12:52:25;7.20;;;5.85;;
53521;SDS011;39398;48.382;9.802;2023-12-28T12:57:26;6.60;;;4.78;;
53521;SDS011;39398;48.382;9.802;2023-12-28T13:02:29;6.13;;;4.57;;
53521;SDS011;39398;48.382;9.802;2023-12-28T13:07:31;5.53;;;4.53;;
53521;SDS011;39398;48.382;9.802;2023-12-28T13:12:33;10.10;;;5.47;;
53521;SDS011;39398;48.382;9.802;2023-12-28T13:17:36;8.77;;;5.05;;
53521;SDS011;39398;48.382;9.802;2023-12-28T13:22:38;6.07;;;4.30;;
53521;SDS011;39398;48.382;9.802;2023-12-28T13:27:40;7.85;;;5.43;;
53521;SDS011;39398;48.382;9.802;2023-12-28T13:32:43;8.88;;;5.32;;
53521;SDS011;39398;48.382;9.802;2023-12-28T13:37:44;6.88;;;4.93;;
53521;SDS011;39398;48.382;9.802;2023-12-28T13:42:46;9.40;;;6.60;;
53521;SDS011;39398;48.382;9.802;2023-12-28T13:47:49;8.75;;;5.18;;
53521;SDS011;39398;48.382;9.802;2023-12-28T13:52:51;7.80;;;5.40;;
53521;SDS011;39398;48.382;9.802;2023-12-28T13:57:52;7.13;;;5.45;;
53521;SDS011;39398;48.382;9.802;2023-12-28T14:02:56;6.93;;;5.20;;
53521;SDS011;39398;48.382;9.802;2023-12-28T14:07:57;9.90;;;6.32;;
53521;SDS011;39398;48.382;9.802;2023-12-28T14:12:59;17.77;;;11.05;;
53521;SDS011;39398;48.382;9.802;2023-12-28T14:18:03;8.32;;;6.00;;
53521;SDS011;39398;48.382;9.802;2023-12-28T14:23:05;10.20;;;6.13;;
53521;SDS011;39398;48.382;9.802;2023-12-28T14:28:09;9.48;;;6.75;;
53521;SDS011;39398;48.382;9.802;2023-12-28T14:33:13;9.98;;;6.70;;
53521;SDS011;39398;48.382;9.802;2023-12-28T14:38:15;8.07;;;6.70;;
53521;SDS011;39398;48.382;9.802;2023-12-28T14:43:17;10.15;;;6.90;;
53521;SDS011;39398;48.382;9.802;2023-12-28T14:48:20;9.20;;;6.90;;
53521;SDS011;39398;48.382;9.802;2023-12-28T14:53:22;10.75;;;7.32;;
53521;SDS011;39398;48.382;9.802;2023-12-28T14:58:24;11.25;;;7.13;;
53521;SDS011;39398;48.382;9.802;2023-12-28T15:03:27;13.93;;;10.45;;
53521;SDS011;39398;48.382;9.802;2023-12-28T15:08:28;9.55;;;7.32;;
53521;SDS011;39398;48.382;9.802;2023-12-28T15:13:31;9.77;;;6.93;;
53521;SDS011;39398;48.382;9.802;2023-12-28T15:18:35;10.57;;;6.93;;
53521;SDS011;39398;48.382;9.802;2023-12-28T15:23:37;9.68;;;7.25;;
53521;SDS011;39398;48.382;9.802;2023-12-28T15:28:39;11.73;;;8.20;;
53521;SDS011;39398;48.382;9.802;2023-12-28T15:33:42;11.25;;;8.00;;
53521;SDS011;39398;48.382;9.802;2023-12-28T15:38:44;11.20;;;7.68;;
53521;SDS011;39398;48.382;9.802;2023-12-28T15:43:46;12.70;;;7.38;;
53521;SDS011;39398;48.382;9.802;2023-12-28T15:48:49;15.98;;;9.07;;
53521;SDS011;39398;48.382;9.802;2023-12-28T15:53:50;13.05;;;7.65;;
53521;SDS011;39398;48.382;9.802;2023-12-28T15:58:52;9.48;;;7.38;;
53521;SDS011;39398;48.382;9.802;2023-12-28T16:03:55;13.10;;;9.02;;
53521;SDS011;39398;48.382;9.802;2023-12-28T16:08:57;12.25;;;7.63;;
53521;SDS011;39398;48.382;9.802;2023-12-28T16:13:58;11.00;;;7.35;;
53521;SDS011;39398;48.382;9.802;2023-12-28T16:19:02;9.95;;;7.82;;
53521;SDS011;39398;48.382;9.802;2023-12-28T16:24:05;11.55;;;7.40;;
53521;SDS011;39398;48.382;9.802;2023-12-28T16:29:07;11.98;;;7.80;;
53521;SDS011;39398;48.382;9.802;2023-12-28T16:34:10;14.25;;;7.70;;
53521;SDS011;39398;48.382;9.802;2023-12-28T16:39:16;11.73;;;8.30;;
53521;SDS011;39398;48.382;9.802;2023-12-28T16:44:18;12.82;;;8.15;;
53521;SDS011;39398;48.382;9.802;2023-12-28T16:49:21;11.82;;;8.15;;
53521;SDS011;39398;48.382;9.802;2023-12-28T16:54:23;14.20;;;10.05;;
53521;SDS011;39398;48.382;9.802;2023-12-28T16:59:24;15.73;;;10.23;;
53521;SDS011;39398;48.382;9.802;2023-12-28T17:04:27;11.93;;;7.90;;
53521;SDS011;39398;48.382;9.802;2023-12-28T17:09:29;12.98;;;8.23;;
53521;SDS011;39398;48.382;9.802;2023-12-28T17:14:31;11.70;;;8.73;;
53521;SDS011;39398;48.382;9.802;2023-12-28T17:19:34;10.68;;;8.15;;
53521;SDS011;39398;48.382;9.802;2023-12-28T17:24:39;10.77;;;7.63;;
53521;SDS011;39398;48.382;9.802;2023-12-28T17:29:46;11.75;;;7.65;;
53521;SDS011;39398;48.382;9.802;2023-12-28T17:34:52;9.90;;;7.80;;
53521;SDS011;39398;48.382;9.802;2023-12-28T17:39:54;13.95;;;8.00;;
53521;SDS011;39398;48.382;9.802;2023-12-28T17:44:57;9.35;;;7.03;;
53521;SDS011;39398;48.382;9.802;2023-12-28T17:50:01;10.48;;;7.57;;
53521;SDS011;39398;48.382;9.802;2023-12-28T17:55:04;9.73;;;6.90;;
53521;SDS011;39398;48.382;9.802;2023-12-28T18:00:06;11.90;;;7.80;;
53521;SDS011;39398;48.382;9.802;2023-12-28T18:05:10;11.13;;;7.30;;
53521;SDS011;39398;48.382;9.802;2023-12-28T18:10:12;10.15;;;6.90;;
53521;SDS011;39398;48.382;9.802;2023-12-28T18:15:14;13.80;;;7.95;;
53521;SDS011;39398;48.382;9.802;2023-12-28T18:20:17;11.07;;;7.28;;
53521;SDS011;39398;48.382;9.802;2023-12-28T18:25:18;13.10;;;9.27;;
53521;SDS011;39398;48.382;9.802;2023-12-28T18:30:20;12.63;;;8.40;;
53521;SDS011;39398;48.382;9.802;2023-12-28T18:35:23;10.57;;;7.63;;
53521;SDS011;39398;48.382;9.802;2023-12-28T18:40:25;11.02;;;7.10;;
53521;SDS011;39398;48.382;9.802;2023-12-28T18:45:26;8.55;;;7.03;;
53521;SDS011;39398;48.382;9.802;2023-12-28T18:50:29;10.35;;;7.03;;
53521;SDS011;39398;48.382;9.802;2023-12-28T18:55:31;15.27;;;11.45;;
53521;SDS011;39398;48.382;9.802;2023-12-28T19:00:33;10.35;;;8.02;;
53521;SDS011;39398;48.382;9.802;2023-12-28T19:05:36;10.43;;;7.13;;
53521;SDS011;39398;48.382;9.802;2023-12-28T19:10:38;15.80;;;9.27;;
53521;SDS011;39398;48.382;9.802;2023-12-28T19:15:40;11.75;;;7.40;;
53521;SDS011;39398;48.382;9.802;2023-12-28T19:20:43;11.07;;;8.00;;
53521;SDS011;39398;48.382;9.802;2023-12-28T19:25:44;12.60;;;8.38;;
53521;SDS011;39398;48.382;9.802;2023-12-28T19:30:46;10.48;;;7.45;;
53521;SDS011;39398;48.382;9.802;2023-12-28T19:35:49;13.20;;;8.23;;
53521;SDS011;39398;48.382;9.802;2023-12-28T19:40:50;9.98;;;7.45;;
53521;SDS011;39398;48.382;9.802;2023-12-28T19:45:53;8.93;;;7.43;;
53521;SDS011;39398;48.382;9.802;2023-12-28T19:50:56;14.05;;;7.82;;
53521;SDS011;39398;48.382;9.802;2023-12-28T19:55:58;10.93;;;7.57;;
53521;SDS011;39398;48.382;9.802;2023-12-28T20:01:04;10.55;;;7.95;;
53521;SDS011;39398;48.382;9.802;2023-12-28T20:06:08;10.50;;;7.63;;
53521;SDS011;39398;48.382;9.802;2023-12-28T20:11:10;11.82;;;8.25;;
53521;SDS011;39398;48.382;9.802;2023-12-28T20:16:11;13.85;;;8.85;;
53521;SDS011;39398;48.382;9.802;2023-12-28T20:21:17;13.77;;;7.72;;
53521;SDS011;39398;48.382;9.802;2023-12-28T20:26:19;11.68;;;8.40;;
53521;SDS011;39398;48.382;9.802;2023-12-28T20:31:21;35.92;;;22.95;;
53521;SDS011;39398;48.382;9.802;2023-12-28T20:36:24;17.42;;;11.70;;
53521;SDS011;39398;48.382;9.802;2023-12-28T20:41:26;17.67;;;12.68;;
53521;SDS011;39398;48.382;9.802;2023-12-28T20:46:28;13.43;;;8.30;;
53521;SDS011;39398;48.382;9.802;2023-12-28T20:51:31;13.93;;;9.73;;
53521;SDS011;39398;48.382;9.802;2023-12-28T20:56:33;14.40;;;9.40;;
53521;SDS011;39398;48.382;9.802;2023-12-28T21:01:35;14.88;;;9.80;;
53521;SDS011;39398;48.382;9.802;2023-12-28T21:06:38;14.73;;;9.68;;
53521;SDS011;39398;48.382;9.802;2023-12-28T21:11:40;18.95;;;11.18;;
53521;SDS011;39398;48.382;9.802;2023-12-28T21:16:42;20.88;;;12.43;;
53521;SDS011;39398;48.382;9.802;2023-12-28T21:27:01;13.95;;;8.60;;
53521;SDS011;39398;48.382;9.802;2023-12-28T21:32:03;11.25;;;8.13;;
53521;SDS011;39398;48.382;9.802;2023-12-28T21:37:07;25.50;;;17.95;;
53521;SDS011;39398;48.382;9.802;2023-12-28T21:42:09;8.45;;;6.63;;
53521;SDS011;39398;48.382;9.802;2023-12-28T21:47:10;10.60;;;7.10;;
53521;SDS011;39398;48.382;9.802;2023-12-28T21:52:13;9.40;;;6.63;;
53521;SDS011;39398;48.382;9.802;2023-12-28T21:57:16;7.93;;;5.80;;
53521;SDS011;39398;48.382;9.802;2023-12-28T22:02:18;9.85;;;7.63;;
53521;SDS011;39398;48.382;9.802;2023-12-28T22:07:21;13.23;;;9.15;;
53521;SDS011;39398;48.382;9.802;2023-12-28T22:12:22;16.25;;;10.50;;
53521;SDS011;39398;48.382;9.802;2023-12-28T22:17:25;18.08;;;11.20;;
53521;SDS011;39398;48.382;9.802;2023-12-28T22:22:28;21.60;;;13.95;;
53521;SDS011;39398;48.382;9.802;2023-12-28T22:27:30;23.27;;;14.65;;
53521;SDS011;39398;48.382;9.802;2023-12-28T22:32:32;22.90;;;14.20;;
53521;SDS011;39398;48.382;9.802;2023-12-28T22:37:35;20.80;;;13.90;;
53521;SDS011;39398;48.382;9.802;2023-12-28T22:42:36;22.48;;;14.20;;
53521;SDS011;39398;48.382;9.802;2023-12-28T22:47:38;22.90;;;13.65;;
53521;SDS011;39398;48.382;9.802;2023-12-28T22:52:41;21.20;;;14.07;;
53521;SDS011;39398;48.382;9.802;2023-12-28T22:57:43;22.83;;;14.48;;
53521;SDS011;39398;48.382;9.802;2023-12-28T23:02:44;21.10;;;15.25;;
53521;SDS011;39398;48.382;9.802;2023-12-28T23:07:48;21.92;;;14.10;;
53521;SDS011;39398;48.382;9.802;2023-12-28T23:12:49;19.98;;;13.50;;
53521;SDS011;39398;48.382;9.802;2023-12-28T23:17:51;22.10;;;13.77;;
53521;SDS011;39398;48.382;9.802;2023-12-28T23:22:56;20.15;;;13.73;;
53521;SDS011;39398;48.382;9.802;2023-12-28T23:28:00;19.90;;;13.18;;
53521;SDS011;39398;48.382;9.802;2023-12-28T23:33:05;21.33;;;14.18;;
53521;SDS011;39398;48.382;9.802;2023-12-28T23:38:08;22.58;;;14.45;;
53521;SDS011;39398;48.382;9.802;2023-12-28T23:43:10;20.48;;;14.23;;
53521;SDS011;39398;48.382;9.802;2023-12-28T23:48:12;23.70;;;14.95;;
53521;SDS011;39398;48.382;9.802;2023-12-28T23:53:15;24.33;;;15.65;;
53521;SDS011;39398;48.382;9.802;2023-12-28T23:58:16;20.83;;;13.88;;
